createdAt,value
2023-01-17T00:02:09.764Z,15.82
2023-01-17T00:04:55.062Z,14.25
2023-01-17T00:07:42.686Z,17.10
2023-01-17T00:10:22.318Z,14.68
2023-01-17T00:13:02.025Z,13.07
2023-01-17T00:15:31.437Z,13.32
2023-01-17T00:17:59.098Z,12.05
2023-01-17T00:20:49.952Z,16.88
2023-01-17T00:23:42.384Z,12.93
2023-01-17T00:26:18.412Z,15.95
2023-01-17T00:28:47.071Z,15.52
2023-01-17T00:31:16.056Z,14.77
2023-01-17T00:33:43.283Z,14.60
2023-01-17T00:36:11.784Z,14.82
2023-01-17T00:38:39.953Z,12.30
2023-01-17T00:41:13.030Z,11.88
2023-01-17T00:43:58.460Z,14.43
2023-01-17T00:46:43.697Z,15.02
2023-01-17T00:49:28.917Z,19.83
2023-01-17T00:52:14.206Z,17.80
2023-01-17T00:54:59.443Z,11.20
2023-01-17T00:57:44.851Z,14.18
2023-01-17T01:00:31.232Z,19.35
2023-01-17T01:03:17.183Z,14.20
2023-01-17T01:06:02.622Z,18.20
2023-01-17T01:08:48.867Z,14.10
2023-01-17T01:11:39.126Z,16.85
2023-01-17T01:14:27.391Z,21.23
2023-01-17T01:17:12.984Z,16.63
2023-01-17T01:19:58.117Z,15.40
2023-01-17T01:22:43.569Z,16.48
2023-01-17T01:25:29.213Z,17.50
2023-01-17T01:28:27.967Z,17.75
2023-01-17T01:31:13.270Z,17.70
2023-01-17T01:33:40.137Z,15.80
2023-01-17T01:36:09.189Z,17.30
2023-01-17T01:38:36.103Z,19.55
2023-01-17T01:41:03.965Z,17.40
2023-01-17T01:43:49.354Z,14.13
2023-01-17T01:46:40.380Z,16.17
2023-01-17T01:49:25.006Z,13.70
2023-01-17T01:51:59.454Z,14.65
2023-01-17T01:54:33.576Z,17.00
2023-01-17T01:57:04.362Z,16.55
2023-01-17T01:59:34.078Z,17.23
2023-01-17T02:02:01.784Z,14.93
2023-01-17T02:04:29.024Z,17.00
2023-01-17T02:07:15.272Z,18.38
2023-01-17T02:09:42.549Z,13.38
2023-01-17T02:12:10.424Z,16.27
2023-01-17T02:14:37.272Z,19.05
2023-01-17T02:17:19.285Z,15.75
2023-01-17T02:20:15.731Z,14.18
2023-01-17T02:23:27.045Z,14.13
2023-01-17T02:26:50.872Z,18.02
2023-01-17T02:29:45.310Z,14.07
2023-01-17T02:32:47.284Z,10.63
2023-01-17T02:35:40.251Z,19.50
2023-01-17T02:38:17.125Z,15.25
2023-01-17T02:40:55.543Z,20.17
2023-01-17T02:43:24.940Z,17.00
2023-01-17T02:45:51.824Z,15.68
2023-01-17T02:48:24.255Z,15.95
2023-01-17T02:51:02.513Z,14.15
2023-01-17T02:53:53.910Z,16.05
2023-01-17T02:56:57.931Z,16.92
2023-01-17T03:00:33.082Z,12.57
2023-01-17T03:03:14.663Z,15.32
2023-01-17T03:06:12.121Z,16.08
2023-01-17T03:08:45.429Z,15.57
2023-01-17T03:11:13.810Z,12.48
2023-01-17T03:13:41.544Z,16.95
2023-01-17T03:16:19.167Z,13.25
2023-01-17T03:18:46.109Z,14.80
2023-01-17T03:21:13.017Z,13.77
2023-01-17T03:23:39.876Z,17.05
2023-01-17T03:26:06.944Z,14.02
2023-01-17T03:28:34.139Z,11.07
2023-01-17T03:31:01.081Z,14.57
2023-01-17T03:33:27.948Z,17.83
2023-01-17T03:35:58.105Z,13.02
2023-01-17T03:38:29.378Z,16.30
2023-01-17T03:40:56.414Z,14.43
2023-01-17T03:43:23.486Z,14.45
2023-01-17T03:45:54.430Z,13.85
2023-01-17T03:48:21.881Z,13.60
2023-01-17T03:50:51.899Z,12.18
2023-01-17T03:53:18.961Z,14.48
2023-01-17T03:55:46.752Z,27.17
2023-01-17T03:58:13.720Z,23.60
2023-01-17T04:00:40.791Z,26.63
2023-01-17T04:03:07.839Z,19.98
2023-01-17T04:05:35.096Z,18.63
2023-01-17T04:08:02.251Z,22.38
2023-01-17T04:10:29.071Z,20.40
2023-01-17T04:12:55.933Z,23.13
2023-01-17T04:15:22.722Z,23.17
2023-01-17T04:17:49.579Z,25.30
2023-01-17T04:20:32.965Z,23.00
2023-01-17T04:23:00.254Z,19.83
2023-01-17T04:25:30.016Z,22.17
2023-01-17T04:27:59.274Z,21.05
2023-01-17T04:30:27.943Z,17.08
2023-01-17T04:32:55.581Z,18.73
2023-01-17T04:35:23.063Z,17.80
2023-01-17T04:37:49.920Z,18.00
2023-01-17T04:40:17.256Z,18.42
2023-01-17T04:42:48.488Z,15.85
2023-01-17T04:45:16.061Z,21.17
2023-01-17T04:47:43.156Z,15.73
2023-01-17T04:50:13.156Z,17.25
2023-01-17T04:52:39.964Z,15.95
2023-01-17T04:55:07.545Z,18.92
2023-01-17T04:57:34.294Z,25.30
2023-01-17T05:00:01.171Z,19.77
2023-01-17T05:02:28.045Z,21.25
2023-01-17T05:04:54.861Z,17.23
2023-01-17T05:07:21.650Z,18.35
2023-01-17T05:09:48.510Z,18.35
2023-01-17T05:12:15.275Z,16.95
2023-01-17T05:14:42.580Z,13.25
2023-01-17T05:17:11.384Z,15.40
2023-01-17T05:19:38.610Z,16.27
2023-01-17T05:22:15.033Z,20.48
2023-01-17T05:24:44.388Z,15.50
2023-01-17T05:27:12.417Z,21.63
2023-01-17T05:29:39.962Z,20.42
2023-01-17T05:32:07.221Z,15.88
2023-01-17T05:34:35.249Z,14.80
2023-01-17T05:37:02.086Z,15.85
2023-01-17T05:39:31.228Z,16.00
2023-01-17T05:41:59.381Z,15.48
2023-01-17T05:44:27.912Z,14.77
2023-01-17T05:46:56.366Z,15.30
2023-01-17T05:49:23.280Z,12.10
2023-01-17T05:51:50.144Z,12.10
2023-01-17T05:54:17.227Z,13.93
2023-01-17T05:56:44.049Z,12.85
2023-01-17T05:59:13.914Z,16.73
2023-01-17T06:01:40.996Z,12.77
2023-01-17T06:04:07.766Z,15.85
2023-01-17T06:06:34.697Z,18.35
2023-01-17T06:09:01.483Z,12.43
2023-01-17T06:11:28.267Z,15.30
2023-01-17T06:13:55.058Z,24.25
2023-01-17T06:16:21.880Z,17.63
2023-01-17T06:18:48.640Z,22.27
2023-01-17T06:21:19.827Z,19.20
2023-01-17T06:23:47.018Z,19.25
2023-01-17T06:26:13.871Z,21.45
2023-01-17T06:28:40.662Z,19.00
2023-01-17T06:31:09.467Z,23.70
2023-01-17T06:33:36.599Z,19.55
2023-01-17T06:36:04.007Z,19.73
2023-01-17T06:38:30.833Z,19.40
2023-01-17T06:41:00.612Z,18.55
2023-01-17T06:43:32.678Z,19.65
2023-01-17T06:46:01.181Z,16.05
2023-01-17T06:48:28.247Z,20.48
2023-01-17T06:50:55.121Z,20.48
2023-01-17T06:53:21.914Z,19.98
2023-01-17T06:55:48.787Z,18.60
2023-01-17T06:58:15.581Z,21.65
2023-01-17T07:00:42.794Z,16.70
2023-01-17T07:03:24.551Z,22.02
2023-01-17T07:05:52.179Z,16.42
2023-01-17T07:08:20.627Z,21.90
2023-01-17T07:10:48.601Z,16.67
2023-01-17T07:13:15.442Z,20.50
2023-01-17T07:15:42.387Z,19.98
2023-01-17T07:18:09.602Z,21.42
2023-01-17T07:20:36.517Z,21.25
2023-01-17T07:23:03.337Z,17.25
2023-01-17T07:25:30.121Z,21.10
2023-01-17T07:27:57.877Z,26.00
2023-01-17T07:30:25.727Z,22.00
2023-01-17T07:32:54.696Z,24.77
2023-01-17T07:35:22.713Z,23.45
2023-01-17T07:37:50.841Z,21.35
2023-01-17T07:40:20.080Z,22.77
2023-01-17T07:42:47.455Z,31.25
2023-01-17T07:45:16.660Z,21.90
2023-01-17T07:47:43.530Z,24.73
2023-01-17T07:50:11.747Z,23.98
2023-01-17T07:52:38.612Z,31.15
2023-01-17T07:55:06.517Z,41.22
2023-01-17T07:57:33.328Z,55.78
2023-01-17T08:00:00.158Z,52.45
2023-01-17T08:02:27.159Z,59.45
2023-01-17T08:04:53.926Z,54.67
2023-01-17T08:07:20.971Z,62.53
2023-01-17T08:09:49.935Z,67.47
2023-01-17T08:12:17.291Z,59.42
2023-01-17T08:14:45.116Z,58.80
2023-01-17T08:17:14.842Z,61.88
2023-01-17T08:19:41.656Z,51.83
2023-01-17T08:22:08.765Z,56.78
2023-01-17T08:24:35.949Z,64.20
2023-01-17T08:27:02.780Z,49.22
2023-01-17T08:29:29.773Z,48.95
2023-01-17T08:31:56.570Z,46.65
2023-01-17T08:34:23.384Z,55.63
2023-01-17T08:36:53.987Z,44.92
2023-01-17T08:39:21.847Z,57.55
2023-01-17T08:41:48.718Z,51.03
2023-01-17T08:44:15.964Z,46.70
2023-01-17T08:46:44.351Z,52.05
2023-01-17T08:49:12.604Z,58.30
2023-01-17T08:51:40.335Z,61.10
2023-01-17T08:54:07.634Z,62.33
2023-01-17T08:56:35.703Z,66.85
2023-01-17T08:59:03.336Z,45.40
2023-01-17T09:01:30.802Z,48.58
2023-01-17T09:03:57.643Z,41.33
2023-01-17T09:06:24.514Z,38.75
2023-01-17T09:08:52.502Z,56.28
2023-01-17T09:11:19.305Z,86.63
2023-01-17T09:13:46.080Z,87.93
2023-01-17T09:16:12.919Z,75.20
2023-01-17T09:18:39.742Z,78.00
2023-01-17T09:21:16.080Z,75.07
2023-01-17T09:23:43.847Z,65.90
2023-01-17T09:26:26.932Z,58.63
2023-01-17T09:28:54.049Z,68.57
2023-01-17T09:31:23.158Z,58.83
2023-01-17T09:33:51.877Z,43.05
2023-01-17T09:36:19.190Z,37.40
2023-01-17T09:38:47.122Z,33.92
2023-01-17T09:41:24.372Z,30.92
2023-01-17T09:44:08.206Z,27.70
2023-01-17T09:46:43.296Z,24.42
2023-01-17T09:49:35.015Z,24.25
2023-01-17T09:52:02.770Z,18.20
2023-01-17T09:54:40.872Z,19.63
2023-01-17T09:57:07.580Z,21.00
2023-01-17T10:00:02.671Z,17.90
2023-01-17T10:02:48.458Z,19.45
2023-01-17T10:06:08.760Z,17.67
2023-01-17T10:09:00.979Z,14.43
2023-01-17T10:12:02.976Z,20.00
2023-01-17T10:15:07.299Z,15.80
2023-01-17T10:18:40.251Z,15.95
2023-01-17T10:21:37.773Z,13.55
2023-01-17T10:24:19.506Z,18.98
2023-01-17T10:26:50.988Z,13.73
2023-01-17T10:29:21.129Z,13.98
2023-01-17T10:32:01.962Z,14.30
2023-01-17T10:34:46.711Z,14.23
2023-01-17T10:37:42.269Z,12.55
2023-01-17T10:40:41.274Z,13.57
2023-01-17T10:43:32.851Z,18.08
2023-01-17T10:45:59.852Z,13.93
2023-01-17T10:48:41.670Z,16.92
2023-01-17T10:51:49.950Z,19.63
2023-01-17T10:54:32.963Z,12.35
2023-01-17T10:56:59.830Z,17.30
2023-01-17T10:59:35.154Z,16.88
2023-01-17T11:02:07.237Z,11.82
2023-01-17T11:04:38.470Z,14.02
2023-01-17T11:07:22.425Z,11.25
2023-01-17T11:09:53.746Z,15.98
2023-01-17T11:12:27.055Z,15.30
2023-01-17T11:15:01.502Z,15.73
2023-01-17T11:17:29.942Z,13.32
2023-01-17T11:20:23.694Z,12.20
2023-01-17T11:23:29.812Z,12.75
2023-01-17T11:26:02.845Z,16.13
2023-01-17T11:28:32.972Z,12.13
2023-01-17T11:31:09.055Z,12.65
2023-01-17T11:33:53.949Z,13.30
2023-01-17T11:39:04.803Z,11.02
2023-01-17T11:41:41.119Z,8.65
2023-01-17T11:44:28.000Z,9.88
2023-01-17T11:47:19.063Z,9.68
2023-01-17T11:49:50.210Z,10.60
2023-01-17T11:52:33.427Z,7.63
2023-01-17T11:55:00.727Z,13.32
2023-01-17T11:57:33.456Z,11.10
2023-01-17T12:00:20.444Z,7.03
2023-01-17T12:03:17.651Z,9.93
2023-01-17T12:05:58.981Z,9.20
2023-01-17T12:09:23.108Z,8.95
2023-01-17T12:12:39.646Z,12.75
2023-01-17T12:15:27.488Z,8.48
2023-01-17T12:18:24.747Z,11.68
2023-01-17T12:21:01.278Z,12.77
2023-01-17T12:23:38.826Z,8.55
2023-01-17T12:26:20.829Z,9.23
2023-01-17T12:30:03.920Z,7.97
2023-01-17T12:33:13.930Z,8.75
2023-01-17T12:35:51.132Z,11.02
2023-01-17T12:38:32.511Z,10.82
2023-01-17T12:41:08.220Z,12.93
2023-01-17T12:43:40.451Z,13.88
2023-01-17T12:46:21.411Z,11.70
2023-01-17T12:48:56.961Z,15.63
2023-01-17T12:51:37.832Z,12.13
2023-01-17T12:54:25.744Z,10.00
2023-01-17T12:57:03.728Z,9.65
2023-01-17T12:59:48.303Z,7.57
2023-01-17T13:02:39.285Z,7.55
2023-01-17T13:05:31.128Z,6.53
2023-01-17T13:08:23.912Z,12.77
2023-01-17T13:10:58.660Z,7.32
2023-01-17T13:16:15.396Z,6.97
2023-01-17T13:18:47.285Z,9.85
2023-01-17T13:21:34.607Z,9.18
2023-01-17T13:24:20.230Z,10.15
2023-01-17T13:26:55.994Z,7.40
2023-01-17T13:29:44.731Z,8.35
2023-01-17T13:32:57.623Z,7.47
2023-01-17T13:35:33.612Z,5.07
2023-01-17T13:38:12.387Z,6.38
2023-01-17T13:41:07.009Z,7.72
2023-01-17T13:44:07.662Z,7.67
2023-01-17T13:47:02.484Z,43.42
2023-01-17T13:49:29.273Z,39.95
2023-01-17T13:52:18.872Z,15.70
2023-01-17T13:54:52.226Z,38.85
2023-01-17T13:57:33.034Z,13.20
2023-01-17T14:00:36.147Z,6.72
2023-01-17T14:03:03.008Z,12.07
2023-01-17T14:05:38.805Z,6.35
2023-01-17T14:08:18.702Z,19.73
2023-01-17T14:10:49.780Z,12.20
2023-01-17T14:13:37.186Z,13.10
2023-01-17T14:16:28.931Z,11.95
2023-01-17T14:18:56.357Z,8.65
2023-01-17T14:21:27.717Z,10.63
2023-01-17T14:24:04.204Z,9.70
2023-01-17T14:26:46.382Z,6.03
2023-01-17T14:29:52.571Z,4.47
2023-01-17T14:32:24.016Z,5.72
2023-01-17T14:34:53.399Z,4.90
2023-01-17T14:37:33.351Z,4.15
2023-01-17T14:40:01.283Z,5.38
2023-01-17T14:42:33.325Z,6.05
2023-01-17T14:45:09.455Z,11.95
2023-01-17T14:47:39.748Z,16.05
2023-01-17T14:50:29.591Z,15.88
2023-01-17T14:53:11.404Z,12.63
2023-01-17T14:56:02.832Z,10.20
2023-01-17T14:58:34.822Z,10.02
2023-01-17T15:01:04.018Z,5.70
2023-01-17T15:03:41.734Z,7.55
2023-01-17T15:06:22.173Z,4.22
2023-01-17T15:08:52.098Z,5.32
2023-01-17T15:11:25.919Z,7.10
2023-01-17T15:13:57.611Z,5.63
2023-01-17T15:16:31.289Z,3.10
2023-01-17T15:18:58.359Z,4.22
2023-01-17T15:21:28.872Z,4.15
2023-01-17T15:23:59.481Z,9.85
2023-01-17T15:26:31.360Z,10.27
2023-01-17T15:29:08.209Z,8.20
2023-01-17T15:31:52.464Z,13.00
2023-01-17T15:34:37.915Z,7.43
2023-01-17T15:37:08.317Z,7.63
2023-01-17T15:39:38.685Z,6.95
2023-01-17T15:42:16.046Z,6.63
2023-01-17T15:44:49.184Z,5.88
2023-01-17T15:47:40.749Z,13.02
2023-01-17T15:50:24.774Z,13.25
2023-01-17T15:53:01.120Z,17.10
2023-01-17T15:55:37.205Z,17.17
2023-01-17T15:58:21.831Z,17.20
2023-01-17T16:00:49.293Z,15.75
2023-01-17T16:03:31.824Z,10.20
2023-01-17T16:06:03.175Z,12.45
2023-01-17T16:08:40.002Z,14.98
2023-01-17T16:11:10.563Z,9.48
2023-01-17T16:13:39.454Z,7.68
2023-01-17T16:16:23.512Z,9.25
2023-01-17T16:19:00.503Z,7.07
2023-01-17T16:21:30.440Z,10.52
2023-01-17T16:23:59.121Z,12.00
2023-01-17T16:26:25.994Z,13.27
2023-01-17T16:28:52.826Z,15.38
2023-01-17T16:31:19.932Z,13.30
2023-01-17T16:33:50.391Z,12.60
2023-01-17T16:36:17.834Z,15.05
2023-01-17T16:38:45.675Z,13.93
2023-01-17T16:41:13.094Z,13.65
2023-01-17T16:43:40.135Z,20.05
2023-01-17T16:46:08.000Z,12.88
2023-01-17T16:48:37.563Z,14.10
2023-01-17T16:51:07.509Z,12.32
2023-01-17T16:53:36.746Z,6.25
2023-01-17T16:56:13.790Z,6.82
2023-01-17T16:58:41.554Z,6.68
2023-01-17T17:01:21.235Z,8.63
2023-01-17T17:03:48.554Z,10.90
2023-01-17T17:06:15.534Z,7.50
2023-01-17T17:08:43.458Z,7.32
2023-01-17T17:11:21.911Z,8.27
2023-01-17T17:13:50.158Z,8.02
2023-01-17T17:16:26.690Z,5.32
2023-01-17T17:19:06.568Z,6.68
2023-01-17T17:21:36.044Z,3.55
2023-01-17T17:24:03.768Z,5.30
2023-01-17T17:26:35.108Z,4.15
2023-01-17T17:29:03.976Z,4.63
2023-01-17T17:31:30.869Z,8.63
2023-01-17T17:34:00.562Z,14.80
2023-01-17T17:36:27.960Z,15.48
2023-01-17T17:38:56.140Z,19.42
2023-01-17T17:41:34.906Z,15.40
2023-01-17T17:44:03.818Z,12.10
2023-01-17T17:46:32.039Z,6.75
2023-01-17T17:48:58.973Z,6.85
2023-01-17T17:51:48.521Z,8.52
2023-01-17T17:54:17.377Z,6.82
2023-01-17T17:56:47.534Z,10.73
2023-01-17T17:59:18.718Z,8.73
2023-01-17T18:01:46.342Z,9.65
2023-01-17T18:04:13.275Z,9.15
2023-01-17T18:06:41.070Z,6.65
2023-01-17T18:09:10.855Z,9.02
2023-01-17T18:11:40.315Z,9.52
2023-01-17T18:14:10.991Z,7.40
2023-01-17T18:16:41.910Z,6.00
2023-01-17T18:19:20.521Z,5.95
2023-01-17T18:21:48.731Z,7.10
2023-01-17T18:24:18.661Z,5.78
2023-01-17T18:26:57.055Z,4.97
2023-01-17T18:29:26.944Z,4.68
2023-01-17T18:31:55.111Z,4.60
2023-01-17T18:34:27.171Z,9.20
2023-01-17T18:36:54.281Z,5.10
2023-01-17T18:39:25.345Z,9.20
2023-01-17T18:41:54.056Z,9.73
2023-01-17T18:44:22.319Z,17.67
2023-01-17T18:46:50.945Z,12.05
2023-01-17T18:49:19.482Z,12.82
2023-01-17T18:51:50.574Z,11.73
2023-01-17T18:54:19.163Z,8.70
2023-01-17T18:56:46.183Z,7.20
2023-01-17T18:59:14.797Z,11.15
2023-01-17T19:01:45.019Z,9.30
2023-01-17T19:04:15.976Z,152.93
2023-01-17T19:06:46.285Z,7.47
2023-01-17T19:09:15.205Z,12.13
2023-01-17T19:11:44.602Z,6.70
2023-01-17T19:14:12.166Z,6.72
2023-01-17T19:16:41.766Z,7.95
2023-01-17T19:19:14.087Z,6.50
2023-01-17T19:21:41.032Z,6.53
2023-01-17T19:24:10.475Z,7.25
2023-01-17T19:26:37.249Z,8.23
2023-01-17T19:29:05.239Z,7.03
2023-01-17T19:31:36.972Z,9.15
2023-01-17T19:34:03.873Z,9.40
2023-01-17T19:36:36.730Z,9.80
2023-01-17T19:39:07.396Z,6.80
2023-01-17T19:41:38.442Z,7.22
2023-01-17T19:44:08.910Z,8.48
2023-01-17T19:46:37.596Z,9.20
2023-01-17T19:49:07.882Z,8.18
2023-01-17T19:51:36.039Z,11.05
2023-01-17T19:54:04.291Z,10.55
2023-01-17T19:56:31.745Z,12.13
2023-01-17T19:59:01.487Z,11.02
2023-01-17T20:01:32.351Z,10.43
2023-01-17T20:04:01.604Z,9.45
2023-01-17T20:06:38.912Z,9.77
2023-01-17T20:09:06.495Z,8.07
2023-01-17T20:11:34.057Z,8.25
2023-01-17T20:14:01.548Z,9.15
2023-01-17T20:16:31.878Z,7.82
2023-01-17T20:19:00.308Z,7.95
2023-01-17T20:21:30.256Z,11.82
2023-01-17T20:23:59.464Z,7.80
2023-01-17T20:26:34.863Z,8.07
2023-01-17T20:29:10.465Z,8.43
2023-01-17T20:31:40.369Z,9.43
2023-01-17T20:34:10.892Z,8.45
2023-01-17T20:36:38.818Z,10.30
2023-01-17T20:39:08.170Z,8.93
2023-01-17T20:41:38.112Z,6.22
2023-01-17T20:44:07.424Z,8.45
2023-01-17T20:46:40.534Z,6.90
2023-01-17T20:49:15.360Z,6.43
2023-01-17T20:54:14.703Z,6.90
2023-01-17T20:56:42.270Z,6.07
2023-01-17T20:59:20.028Z,9.23
2023-01-17T21:01:47.675Z,8.68
2023-01-17T21:04:15.103Z,7.32
2023-01-17T21:06:43.983Z,6.20
2023-01-17T21:09:14.915Z,8.57
2023-01-17T21:11:41.771Z,7.45
2023-01-17T21:14:08.857Z,7.63
2023-01-17T21:16:35.852Z,11.95
2023-01-17T21:19:03.317Z,8.55
2023-01-17T21:21:30.897Z,8.68
2023-01-17T21:23:59.532Z,9.45
2023-01-17T21:26:28.695Z,9.95
2023-01-17T21:28:56.521Z,10.70
2023-01-17T21:31:30.576Z,13.35
2023-01-17T21:34:05.015Z,11.35
2023-01-17T21:36:35.663Z,11.55
2023-01-17T21:39:11.388Z,14.30
2023-01-17T21:41:41.210Z,16.20
2023-01-17T21:44:20.971Z,16.48
2023-01-17T21:46:49.276Z,13.07
2023-01-17T21:49:17.386Z,10.98
2023-01-17T21:51:53.401Z,12.45
2023-01-17T21:54:47.125Z,12.63
2023-01-17T21:57:36.421Z,11.80
2023-01-17T22:00:08.426Z,11.40
2023-01-17T22:02:35.536Z,13.82
2023-01-17T22:05:02.354Z,8.20
2023-01-17T22:07:29.272Z,11.73
2023-01-17T22:09:57.077Z,12.02
2023-01-17T22:12:24.521Z,7.80
2023-01-17T22:14:52.697Z,6.00
2023-01-17T22:17:21.079Z,6.82
2023-01-17T22:19:47.967Z,8.80
2023-01-17T22:22:15.116Z,8.95
2023-01-17T22:24:42.155Z,17.13
2023-01-17T22:27:10.089Z,22.75
2023-01-17T22:29:37.972Z,23.85
2023-01-17T22:32:05.322Z,38.95
2023-01-17T22:34:32.161Z,23.77
2023-01-17T22:36:59.245Z,24.50
2023-01-17T22:39:26.083Z,16.55
2023-01-17T22:41:52.898Z,16.17
2023-01-17T22:44:19.705Z,16.10
2023-01-17T22:46:46.472Z,13.15
2023-01-17T22:49:14.117Z,10.55
2023-01-17T22:51:41.291Z,9.40
2023-01-17T22:54:08.111Z,7.35
2023-01-17T22:56:35.097Z,6.32
2023-01-17T22:59:02.505Z,7.93
2023-01-17T23:01:33.118Z,4.95
2023-01-17T23:04:03.230Z,5.93
2023-01-17T23:06:37.332Z,4.78
2023-01-17T23:09:11.968Z,4.55
2023-01-17T23:11:50.881Z,8.75
2023-01-17T23:14:18.922Z,15.13
2023-01-17T23:17:11.493Z,13.20
2023-01-17T23:19:51.101Z,8.30
2023-01-17T23:22:24.675Z,11.30
2023-01-17T23:25:08.599Z,10.13
2023-01-17T23:27:55.486Z,9.60
2023-01-17T23:30:26.466Z,11.52
2023-01-17T23:32:57.199Z,9.95
2023-01-17T23:35:31.855Z,10.45
2023-01-17T23:38:18.271Z,9.00
2023-01-17T23:41:04.415Z,8.75
2023-01-17T23:43:32.492Z,9.82
2023-01-17T23:45:59.543Z,14.27
2023-01-17T23:48:26.574Z,7.93
2023-01-17T23:51:08.338Z,8.32
2023-01-17T23:53:37.417Z,6.25
2023-01-17T23:56:18.236Z,9.15
2023-01-17T23:58:45.779Z,7.63
